Time;durP1;ratioP1;P1;durP2;ratioP2;P2;SDS_P1;SDS_P2;PMS_P1;PMS_P2;Temp;Humidity;BMP_temperature;BMP_pressure;BME280_temperature;BME280_humidity;BME280_pressure;Samples;Min_cycle;Max_cycle;Signal;HPM_P1;HPM_P2
2021/05/24 00:00:57;;;;;;;3.35;1.58;;;358.80;2329.60;;;;;;5078947;28;20457;-77
2021/05/24 00:03:23;;;;;;;2.90;1.70;;;358.80;2329.60;;;;;;5081305;28;20024;-77
2021/05/24 00:05:49;;;;;;;3.22;2.00;;;358.80;2329.60;;;;;;5082262;28;20083;-77
2021/05/24 00:08:14;;;;;;;2.35;1.38;;;358.80;2329.60;;;;;;5079697;28;20043;-76
2021/05/24 00:10:43;;;;;;;3.45;1.25;;;358.70;2329.60;;;;;;5080342;28;20464;-77
2021/05/24 00:13:10;;;;;;;4.00;1.60;;;358.70;2329.60;;;;;;5078717;28;20536;-78
2021/05/24 00:15:55;;;;;;;2.65;1.50;;;358.70;2329.60;;;;;;5078900;28;20543;-78
2021/05/24 00:18:21;;;;;;;1.73;1.42;;;358.70;2329.60;;;;;;5084718;28;20024;-78
2021/05/24 00:20:53;;;;;;;2.90;1.60;;;358.70;2329.60;;;;;;5071684;28;20028;-78
2021/05/24 00:23:20;;;;;;;2.33;1.60;;;358.60;2329.60;;;;;;5069895;28;20028;-78
2021/05/24 00:25:47;;;;;;;1.60;1.40;;;358.60;2329.60;;;;;;5063548;28;20037;-78
2021/05/24 00:28:14;;;;;;;3.75;2.10;;;358.60;2329.60;;;;;;5065600;28;20525;-78
2021/05/24 00:30:48;;;;;;;2.40;1.70;;;358.50;2329.60;;;;;;5067031;28;20043;-80
2021/05/24 00:33:14;;;;;;;2.58;1.40;;;358.50;2329.60;;;;;;5066406;28;20020;-80
2021/05/24 00:35:40;;;;;;;3.33;2.05;;;358.60;2329.60;;;;;;5074161;28;20392;-79
2021/05/24 00:38:07;;;;;;;3.40;1.92;;;358.50;2329.60;;;;;;5070727;28;20033;-79
2021/05/24 00:40:35;;;;;;;12.55;2.72;;;358.50;2329.60;;;;;;5070443;28;20043;-78
2021/05/24 00:43:02;;;;;;;3.13;1.95;;;358.50;2329.60;;;;;;5066313;28;20119;-78
2021/05/24 00:45:28;;;;;;;4.57;2.38;;;358.50;2329.60;;;;;;5070190;28;20036;-78
2021/05/24 00:47:54;;;;;;;5.20;2.20;;;358.50;2329.60;;;;;;5071878;28;20479;-79
2021/05/24 00:50:20;;;;;;;2.38;1.58;;;358.50;2329.60;;;;;;5070157;28;20624;-78
2021/05/24 00:52:46;;;;;;;4.10;2.40;;;358.50;2329.60;;;;;;5071822;28;20403;-79
2021/05/24 00:55:12;;;;;;;3.03;1.73;;;358.50;2329.60;;;;;;5070219;28;20032;-78
2021/05/24 00:57:38;;;;;;;2.85;1.70;;;358.40;2329.60;;;;;;5071789;28;20502;-78
2021/05/24 01:00:08;;;;;;;3.40;1.85;;;358.40;2329.60;;;;;;5070064;28;20025;-79
2021/05/24 01:02:35;;;;;;;4.93;2.47;;;358.40;2329.60;;;;;;5071638;28;20032;-79
2021/05/24 01:05:00;;;;;;;3.97;1.83;;;358.40;2329.60;;;;;;5069735;28;20033;-78
2021/05/24 01:07:26;;;;;;;3.35;1.95;;;358.40;2329.60;;;;;;5071708;28;20383;-78
2021/05/24 01:09:52;;;;;;;4.15;2.40;;;358.40;2329.60;;;;;;5071253;28;20075;-78
2021/05/24 01:12:18;;;;;;;3.72;2.13;;;358.40;2329.60;;;;;;5086869;28;20032;-79
2021/05/24 01:14:44;;;;;;;4.13;2.20;;;333.70;2329.60;;;;;;5057780;28;20400;-79
2021/05/24 01:17:10;;;;;;;6.82;1.88;;;333.70;2329.60;;;;;;5070135;28;20035;-78
2021/05/24 01:19:51;;;;;;;3.53;1.92;;;358.40;2329.60;;;;;;5086542;28;20056;-78
2021/05/24 01:22:21;;;;;;;3.58;2.17;;;358.40;2329.60;;;;;;5073444;28;20115;-78
2021/05/24 01:24:48;;;;;;;3.20;1.95;;;333.70;2329.60;;;;;;5074560;28;20017;-77
2021/05/24 01:27:14;;;;;;;17.33;3.70;;;333.70;2329.60;;;;;;5075347;28;20819;-78
2021/05/24 01:29:41;;;;;;;3.50;2.10;;;333.70;2329.60;;;;;;5073411;28;20149;-78
2021/05/24 01:32:07;;;;;;;4.25;2.08;;;333.60;2329.60;;;;;;5073990;28;20066;-78
2021/05/24 01:34:34;;;;;;;3.50;2.17;;;333.50;2329.60;;;;;;5074576;28;20402;-78
2021/05/24 01:37:02;;;;;;;3.72;2.08;;;333.60;2329.60;;;;;;5074065;28;20055;-78
2021/05/24 01:39:28;;;;;;;3.47;2.10;;;333.50;2329.60;;;;;;5074591;28;20037;-78
2021/05/24 01:41:55;;;;;;;3.45;2.35;;;333.50;2329.60;;;;;;5073741;28;20021;-78
2021/05/24 01:44:27;;;;;;;2.85;1.98;;;333.60;2329.60;;;;;;5074443;28;20024;-78
2021/05/24 01:46:53;;;;;;;4.75;2.30;;;333.50;2329.60;;;;;;5073191;28;20021;-78
2021/05/24 01:49:19;;;;;;;4.25;2.08;;;333.40;2329.60;;;;;;5074928;28;20017;-78
2021/05/24 01:51:45;;;;;;;5.13;2.38;;;333.40;2329.60;;;;;;5074432;28;20021;-78
2021/05/24 01:54:12;;;;;;;5.00;2.88;;;333.40;2329.60;;;;;;5074667;28;20021;-78
2021/05/24 01:56:37;;;;;;;5.53;2.60;;;333.40;2329.60;;;;;;5074525;28;20219;-78
2021/05/24 01:59:04;;;;;;;5.28;2.65;;;333.40;2329.60;;;;;;5090080;28;20016;-79
2021/05/24 02:01:29;;;;;;;3.08;2.15;;;333.40;2329.60;;;;;;5074216;28;20082;-78
2021/05/24 02:03:55;;;;;;;3.97;2.25;;;333.40;2329.60;;;;;;5074453;28;20028;-78
2021/05/24 02:06:21;;;;;;;5.75;2.97;;;333.30;2329.60;;;;;;5072887;28;20033;-78
2021/05/24 02:08:46;;;;;;;4.40;2.22;;;333.20;2329.60;;;;;;5072612;28;20090;-78
2021/05/24 02:11:15;;;;;;;3.63;2.45;;;333.20;2329.60;;;;;;5074099;28;20525;-78
2021/05/24 02:13:46;;;;;;;4.85;3.25;;;333.20;2329.60;;;;;;5074019;28;20396;-78
2021/05/24 02:16:12;;;;;;;6.13;3.17;;;333.20;2329.60;;;;;;5074381;28;20048;-78
2021/05/24 02:18:38;;;;;;;4.13;2.63;;;333.20;2329.60;;;;;;5073911;28;20024;-78
2021/05/24 02:21:06;;;;;;;5.75;2.55;;;333.10;2329.60;;;;;;5072832;28;20033;-79
2021/05/24 02:23:32;;;;;;;5.35;2.35;;;333.10;2329.60;;;;;;5072441;28;20039;-79
2021/05/24 02:25:58;;;;;;;4.20;2.45;;;333.00;2329.60;;;;;;5073884;28;20036;-79
2021/05/24 02:28:24;;;;;;;4.00;2.58;;;333.00;2329.60;;;;;;5072534;28;20044;-79
2021/05/24 02:30:50;;;;;;;6.82;3.53;;;333.00;2329.60;;;;;;5072810;28;20056;-79
2021/05/24 02:33:17;;;;;;;3.40;2.40;;;333.00;2329.60;;;;;;5071204;28;20032;-79
2021/05/24 02:35:43;;;;;;;5.72;2.53;;;333.00;2329.60;;;;;;5073396;28;20032;-79
2021/05/24 02:38:10;;;;;;;5.47;3.08;;;333.00;2329.60;;;;;;5072796;28;20028;-78
2021/05/24 02:40:36;;;;;;;4.55;2.50;;;333.10;2329.60;;;;;;5072332;28;20028;-79
2021/05/24 02:43:02;;;;;;;4.05;2.75;;;333.00;2329.60;;;;;;5073698;28;20390;-78
2021/05/24 02:45:28;;;;;;;3.63;2.72;;;333.00;2329.60;;;;;;5073435;28;20027;-78
2021/05/24 02:47:56;;;;;;;4.70;2.80;;;332.90;2329.60;;;;;;5072395;28;20029;-78
2021/05/24 02:50:24;;;;;;;4.07;2.88;;;332.90;2329.60;;;;;;5073179;28;20020;-78
2021/05/24 02:52:52;;;;;;;4.57;2.80;;;332.90;2329.60;;;;;;5072308;28;20506;-78
2021/05/24 02:55:18;;;;;;;4.60;3.15;;;333.00;2329.60;;;;;;5071925;28;20503;-77
2021/05/24 02:57:44;;;;;;;3.50;2.40;;;332.90;2329.60;;;;;;5059251;28;20060;-78
2021/05/24 03:00:11;;;;;;;4.32;3.10;;;332.90;2329.60;;;;;;5072178;28;20055;-78
2021/05/24 03:02:45;;;;;;;4.20;2.80;;;332.80;2329.60;;;;;;5071827;28;20028;-78
2021/05/24 03:05:13;;;;;;;4.57;2.95;;;332.80;2329.60;;;;;;5072195;28;20086;-78
2021/05/24 03:07:39;;;;;;;4.82;3.22;;;332.80;2329.60;;;;;;5071539;28;20027;-77
2021/05/24 03:10:05;;;;;;;4.70;2.95;;;332.90;2329.60;;;;;;5073346;28;20020;-78
2021/05/24 03:12:31;;;;;;;4.63;3.28;;;332.90;2329.60;;;;;;5071113;28;20035;-79
2021/05/24 03:14:57;;;;;;;5.13;3.85;;;332.80;2329.60;;;;;;5071949;28;20020;-79
2021/05/24 03:17:22;;;;;;;7.00;3.97;;;332.80;2329.60;;;;;;5071048;28;20357;-78
2021/05/24 03:19:48;;;;;;;5.30;3.72;;;332.80;2329.60;;;;;;5072795;28;20104;-79
2021/05/24 03:22:14;;;;;;;4.88;3.30;;;332.90;2329.60;;;;;;5077334;28;20110;-78
2021/05/24 03:24:39;;;;;;;5.60;3.40;;;332.90;2329.60;;;;;;5068046;28;20017;-77
2021/05/24 03:27:05;;;;;;;5.32;3.20;;;332.90;2329.60;;;;;;5070970;28;20437;-78
2021/05/24 03:29:31;;;;;;;4.55;3.35;;;332.90;2329.60;;;;;;5069308;28;20527;-77
2021/05/24 03:31:57;;;;;;;5.50;3.47;;;333.00;2329.60;;;;;;5081040;28;20134;-78
2021/05/24 03:34:22;;;;;;;5.55;3.00;;;333.30;2329.60;;;;;;5065226;28;20099;-78
2021/05/24 03:36:48;;;;;;;10.73;4.38;;;333.20;2329.60;;;;;;5068131;28;20036;-79
2021/05/24 03:39:14;;;;;;;6.38;3.20;;;333.20;2329.60;;;;;;5071362;28;20031;-79
2021/05/24 03:41:40;;;;;;;5.00;3.85;;;333.30;2329.60;;;;;;5080442;28;20025;-78
2021/05/24 03:44:06;;;;;;;5.22;3.33;;;333.30;2329.60;;;;;;5075212;28;20479;-79
2021/05/24 03:46:31;;;;;;;6.50;3.75;;;333.40;2329.60;;;;;;5072138;28;20741;-79
2021/05/24 03:49:00;;;;;;;4.85;3.20;;;333.40;2329.60;;;;;;5071171;28;20023;-79
2021/05/24 03:51:26;;;;;;;6.03;3.78;;;333.50;2329.60;;;;;;5087693;28;20786;-79
2021/05/24 03:53:53;;;;;;;6.60;3.70;;;333.50;2329.60;;;;;;5070976;28;20044;-79
2021/05/24 03:56:20;;;;;;;7.25;3.30;;;333.60;2329.60;;;;;;5072297;28;20388;-78
2021/05/24 03:58:45;;;;;;;4.63;3.17;;;333.70;2329.60;;;;;;5072352;28;20055;-78
2021/05/24 04:01:11;;;;;;;5.03;3.40;;;358.40;2329.60;;;;;;5070756;28;20046;-79
2021/05/24 04:03:37;;;;;;;4.18;3.13;;;358.40;2329.60;;;;;;5070780;28;20399;-79
2021/05/24 04:06:05;;;;;;;4.75;3.08;;;358.50;2329.60;;;;;;5071844;28;20021;-80
2021/05/24 04:08:42;;;;;;;4.88;3.63;;;358.60;2329.60;;;;;;5071010;28;20024;-78
2021/05/24 04:11:08;;;;;;;5.63;3.58;;;358.60;2329.60;;;;;;5070841;28;20025;-80
2021/05/24 04:13:34;;;;;;;5.10;3.78;;;358.70;2329.60;;;;;;5070570;28;20111;-79
2021/05/24 04:16:00;;;;;;;4.45;2.97;;;358.80;2329.60;;;;;;5070915;28;20119;-77
2021/05/24 04:18:30;;;;;;;5.95;3.25;;;359.00;2329.60;;;;;;5081382;28;20038;-79
2021/05/24 04:20:56;;;;;;;7.35;3.55;;;359.10;2329.60;;;;;;5096381;28;20161;-79
2021/05/24 04:23:22;;;;;;;4.78;3.20;;;359.20;2329.60;;;;;;5080432;28;20051;-78
2021/05/24 04:25:47;;;;;;;6.40;3.80;;;384.00;2329.60;;;;;;5079576;28;20486;-80
2021/05/24 04:28:14;;;;;;;5.18;3.22;;;384.20;2329.60;;;;;;5082682;28;20020;-78
2021/05/24 04:30:41;;;;;;;9.07;4.53;;;384.20;2329.60;;;;;;5081581;28;20020;-78
2021/05/24 04:33:07;;;;;;;4.40;3.33;;;384.30;2329.60;;;;;;5081577;28;20028;-79
2021/05/24 04:35:33;;;;;;;4.72;3.03;;;384.60;2329.60;;;;;;5083987;28;20032;-78
2021/05/24 04:37:59;;;;;;;4.28;3.00;;;384.70;2329.60;;;;;;5082817;28;20078;-78
2021/05/24 04:40:24;;;;;;;7.75;3.00;;;384.70;2329.60;;;;;;5078459;28;20039;-79
2021/05/24 04:42:50;;;;;;;4.78;2.85;;;384.80;2329.60;;;;;;5081809;28;20029;-79
2021/05/24 04:45:16;;;;;;;5.13;2.85;;;409.60;2355.20;;;;;;5083549;28;20449;-78
2021/05/24 04:47:43;;;;;;;5.65;3.13;;;409.80;2355.20;;;;;;5079988;28;20020;-78
2021/05/24 04:50:10;;;;;;;3.85;2.60;;;409.90;2355.20;;;;;;5082678;28;20017;-77
2021/05/24 04:52:36;;;;;;;5.03;2.65;;;409.90;2355.20;;;;;;5083134;28;20123;-78
2021/05/24 04:55:04;;;;;;;3.95;3.03;;;410.00;2355.20;;;;;;5080231;28;20375;-79
2021/05/24 04:57:29;;;;;;;4.82;2.33;;;410.00;2355.20;;;;;;5081362;28;20125;-79
2021/05/24 04:59:55;;;;;;;4.07;2.58;;;410.10;2355.20;;;;;;5086292;28;20467;-79
2021/05/24 05:02:21;;;;;;;4.53;2.40;;;410.30;2355.20;;;;;;5085419;28;20036;-79
2021/05/24 05:04:46;;;;;;;4.13;3.05;;;410.50;2355.20;;;;;;5083210;28;20032;-79
2021/05/24 05:07:12;;;;;;;5.13;3.50;;;435.20;2355.20;;;;;;5083421;28;20040;-79
2021/05/24 05:09:38;;;;;;;6.15;3.78;;;410.50;2355.20;;;;;;5082769;28;20111;-80
2021/05/24 05:12:04;;;;;;;5.95;3.47;;;435.40;2355.20;;;;;;5084713;28;20038;-79
2021/05/24 05:14:30;;;;;;;4.82;3.25;;;435.60;2355.20;;;;;;5083867;28;20035;-79
2021/05/24 05:16:56;;;;;;;5.03;2.72;;;435.70;2355.20;;;;;;5084477;28;20042;-78
2021/05/24 05:19:22;;;;;;;4.93;2.53;;;435.80;2355.20;;;;;;5085917;28;20463;-78
2021/05/24 05:21:49;;;;;;;4.15;2.30;;;435.80;2355.20;;;;;;5082565;28;20032;-79
2021/05/24 05:24:15;;;;;;;6.10;3.22;;;435.90;2355.20;;;;;;5079976;28;20025;-79
2021/05/24 05:26:41;;;;;;;5.13;2.65;;;435.90;2355.20;;;;;;5083369;28;20035;-79
2021/05/24 05:29:07;;;;;;;5.68;1.85;;;435.90;2355.20;;;;;;5084349;28;20020;-79
2021/05/24 05:31:32;;;;;;;8.07;2.50;;;436.00;2355.20;;;;;;5084380;28;20029;-80
2021/05/24 05:33:59;;;;;;;5.28;2.40;;;460.80;2380.80;;;;;;5084567;28;20707;-79
2021/05/24 05:36:26;;;;;;;4.75;1.98;;;461.00;2380.80;;;;;;5083289;28;20036;-79
2021/05/24 05:38:52;;;;;;;4.60;2.50;;;461.00;2355.20;;;;;;5080224;28;20021;-81
2021/05/24 05:41:18;;;;;;;3.22;2.03;;;461.10;2329.60;;;;;;5073595;28;20074;-83
2021/05/24 05:43:44;;;;;;;4.80;2.00;;;461.00;2329.60;;;;;;5076547;28;20033;-80
2021/05/24 05:46:10;;;;;;;4.57;1.90;;;461.10;2304.00;;;;;;5082793;28;20500;-79
2021/05/24 05:48:36;;;;;;;2.90;2.00;;;461.10;2304.00;;;;;;5083980;28;20069;-79
2021/05/24 05:51:03;;;;;;;4.70;1.88;;;461.10;2304.00;;;;;;5079138;28;20103;-80
2021/05/24 05:53:29;;;;;;;4.43;2.17;;;461.10;2304.00;;;;;;5078786;28;20059;-79
2021/05/24 05:55:55;;;;;;;4.45;2.10;;;461.00;2304.00;;;;;;5086475;28;20031;-80
2021/05/24 05:58:21;;;;;;;2.47;1.85;;;461.00;2304.00;;;;;;5081550;28;20085;-80
2021/05/24 06:00:46;;;;;;;3.67;1.92;;;461.00;2304.00;;;;;;5080490;28;20108;-79
2021/05/24 06:03:13;;;;;;;5.20;2.25;;;461.10;2304.00;;;;;;5083926;28;20035;-78
2021/05/24 06:05:39;;;;;;;5.03;3.00;;;461.10;2329.60;;;;;;5078124;28;20039;-79
2021/05/24 06:08:05;;;;;;;4.05;2.22;;;461.10;2304.00;;;;;;5080297;28;20017;-79
2021/05/24 06:10:31;;;;;;;3.75;2.40;;;461.40;2278.40;;;;;;5084410;28;20024;-79
2021/05/24 06:12:58;;;;;;;4.43;2.90;;;461.60;2252.80;;;;;;5079988;28;20070;-79
2021/05/24 06:15:24;;;;;;;6.47;3.17;;;486.50;2201.60;;;;;;5082046;28;20479;-77
2021/05/24 06:17:50;;;;;;;6.35;4.82;;;486.90;2176.00;;;;;;5081512;28;20025;-78
2021/05/24 06:20:16;;;;;;;4.20;2.40;;;487.00;2124.80;;;;;;5079520;28;20352;-77
2021/05/24 06:22:43;;;;;;;4.13;2.28;;;487.20;2099.20;;;;;;5080785;28;20024;-78
2021/05/24 06:25:10;;;;;;;4.13;3.10;;;512.00;2099.20;;;;;;5086399;28;20486;-78
2021/05/24 06:27:36;;;;;;;4.45;2.72;;;512.50;2048.00;;;;;;5080902;28;20029;-78
2021/05/24 06:30:04;;;;;;;3.67;2.17;;;512.80;2022.40;;;;;;5097933;28;20658;-78
2021/05/24 06:32:30;;;;;;;3.88;2.53;;;537.60;1996.80;;;;;;5076293;28;20040;-78
2021/05/24 06:34:55;;;;;;;3.03;2.08;;;512.90;1971.20;;;;;;5072530;28;20032;-79
2021/05/24 06:37:21;;;;;;;4.78;3.33;;;537.70;1971.20;;;;;;5078667;28;20124;-79
2021/05/24 06:39:47;;;;;;;3.20;1.55;;;538.10;1945.60;;;;;;5063374;28;20392;-77
2021/05/24 06:42:13;;;;;;;4.07;1.80;;;563.20;1945.60;;;;;;5088834;28;20035;-78
2021/05/24 06:44:38;;;;;;;3.65;2.00;;;563.60;1894.40;;;;;;5077545;28;20483;-78
2021/05/24 06:47:05;;;;;;;4.47;2.05;;;563.70;1843.20;;;;;;5079182;28;20031;-78
2021/05/24 06:49:31;;;;;;;3.63;2.30;;;563.70;1843.20;;;;;;5081715;28;20024;-77
2021/05/24 06:51:57;;;;;;;3.30;2.38;;;564.10;1817.60;;;;;;5078358;28;20048;-77
2021/05/24 06:54:23;;;;;;;1.88;1.48;;;588.90;1792.00;;;;;;5082542;28;20124;-76
2021/05/24 06:56:48;;;;;;;2.97;1.75;;;589.00;1740.80;;;;;;5084192;28;20028;-77
2021/05/24 06:59:14;;;;;;;3.50;1.95;;;589.10;1740.80;;;;;;5085298;28;20387;-78
2021/05/24 07:01:40;;;;;;;2.75;1.60;;;589.00;1766.40;;;;;;5082295;28;20490;-78
2021/05/24 07:04:06;;;;;;;3.63;2.00;;;588.90;1792.00;;;;;;5079323;28;20065;-78
2021/05/24 07:06:32;;;;;;;2.97;1.70;;;589.40;1740.80;;;;;;5083656;28;20037;-77
2021/05/24 07:08:58;;;;;;;4.20;2.08;;;589.40;1740.80;;;;;;5063092;28;20028;-78
2021/05/24 07:11:24;;;;;;;4.63;1.88;;;589.30;1689.60;;;;;;5068899;28;20086;-77
2021/05/24 07:13:50;;;;;;;4.50;2.15;;;589.10;1740.80;;;;;;5077198;28;20483;-79
2021/05/24 07:16:16;;;;;;;5.72;1.90;;;589.40;1715.20;;;;;;5066872;28;20028;-78
2021/05/24 07:18:42;;;;;;;3.42;2.00;;;589.50;1715.20;;;;;;5061420;28;20063;-78
2021/05/24 07:21:08;;;;;;;5.28;1.63;;;589.70;1689.60;;;;;;5060329;28;20048;-77
2021/05/24 07:23:34;;;;;;;3.13;1.85;;;589.40;1664.00;;;;;;5074153;28;20399;-77
2021/05/24 07:26:00;;;;;;;2.08;1.38;;;589.70;1638.40;;;;;;5081991;28;20471;-77
2021/05/24 07:28:25;;;;;;;3.65;1.73;;;589.50;1638.40;;;;;;5065773;28;20024;-77
2021/05/24 07:30:51;;;;;;;3.15;1.60;;;589.40;1664.00;;;;;;5065774;28;20077;-77
2021/05/24 07:33:17;;;;;;;4.55;2.33;;;589.30;1664.00;;;;;;5064495;28;20454;-77
2021/05/24 07:35:43;;;;;;;5.18;3.20;;;614.40;1664.00;;;;;;5061958;28;20033;-77
2021/05/24 07:38:09;;;;;;;3.30;1.90;;;614.90;1587.20;;;;;;5057221;28;20155;-77
2021/05/24 07:40:35;;;;;;;2.38;1.50;;;615.00;1587.20;;;;;;5055599;28;20074;-77
2021/05/24 07:43:02;;;;;;;4.03;2.28;;;614.90;1612.80;;;;;;5064987;28;20479;-77
2021/05/24 07:45:27;;;;;;;2.28;1.58;;;615.10;1561.60;;;;;;5071234;28;20025;-77
2021/05/24 07:47:53;;;;;;;2.17;1.63;;;614.90;1587.20;;;;;;5072168;28;20031;-78
2021/05/24 07:50:20;;;;;;;6.38;2.88;;;614.90;1561.60;;;;;;5072090;28;20028;-77
2021/05/24 07:52:46;;;;;;;4.25;2.17;;;615.20;1536.00;;;;;;5070064;28;20721;-77
2021/05/24 07:55:12;;;;;;;6.13;3.10;;;615.00;1587.20;;;;;;5072107;28;20028;-77
2021/05/24 07:57:39;;;;;;;3.58;1.83;;;615.20;1536.00;;;;;;5070813;28;20407;-77
2021/05/24 08:00:07;;;;;;;4.55;1.90;;;615.30;1510.40;;;;;;5071935;28;20028;-77
2021/05/24 08:02:34;;;;;;;6.95;3.80;;;640.10;1459.20;;;;;;5070864;28;20395;-77
2021/05/24 08:04:59;;;;;;;2.55;1.65;;;640.30;1433.60;;;;;;5070301;28;20112;-77
2021/05/24 08:07:25;;;;;;;2.70;2.03;;;640.40;1382.40;;;;;;5070923;28;20119;-77
2021/05/24 08:09:51;;;;;;;3.97;2.00;;;640.30;1433.60;;;;;;5070509;28;20028;-78
2021/05/24 08:12:17;;;;;;;3.13;1.85;;;640.70;1433.60;;;;;;5072109;28;20577;-77
2021/05/24 08:14:43;;;;;;;2.92;1.95;;;640.90;1356.80;;;;;;5071783;28;20099;-77
2021/05/24 08:17:09;;;;;;;5.72;2.45;;;666.20;1331.20;;;;;;5071908;28;20059;-77
2021/05/24 08:19:35;;;;;;;6.93;3.42;;;691.50;1356.80;;;;;;5071376;28;20059;-78
2021/05/24 08:22:01;;;;;;;4.55;2.40;;;691.50;1331.20;;;;;;5070251;28;20040;-77
2021/05/24 08:24:27;;;;;;;4.55;1.70;;;691.70;1305.60;;;;;;5071534;28;20074;-79
2021/05/24 08:26:52;;;;;;;3.63;1.65;;;691.60;1305.60;;;;;;5069967;28;20036;-79
2021/05/24 08:29:18;;;;;;;3.40;1.60;;;691.60;1280.00;;;;;;5071839;28;20056;-79
2021/05/24 08:31:44;;;;;;;4.50;2.17;;;716.80;1280.00;;;;;;5069399;28;20472;-79
2021/05/24 08:34:10;;;;;;;4.30;2.50;;;717.10;1254.40;;;;;;5070153;28;20386;-79
2021/05/24 08:36:36;;;;;;;4.28;2.42;;;717.30;1228.80;;;;;;5058884;28;20075;-79
2021/05/24 08:39:05;;;;;;;4.55;3.05;;;717.70;1177.60;;;;;;5078422;28;20112;-79
2021/05/24 08:41:33;;;;;;;4.47;2.88;;;717.20;1177.60;;;;;;5053385;28;20559;-79
2021/05/24 08:43:59;;;;;;;4.10;2.83;;;692.10;1228.80;;;;;;5070236;28;20031;-79
2021/05/24 08:46:26;;;;;;;5.22;1.77;;;691.30;1280.00;;;;;;5066579;28;20025;-79
2021/05/24 08:48:52;;;;;;;1.70;1.30;;;691.20;1280.00;;;;;;5081254;28;20020;-79
2021/05/24 08:51:18;;;;;;;3.35;1.48;;;666.50;1280.00;;;;;;5084815;28;20026;-79
2021/05/24 08:53:44;;;;;;;5.22;2.00;;;691.20;1280.00;;;;;;5060018;28;20094;-79
2021/05/24 08:56:09;;;;;;;4.53;2.17;;;666.50;1254.40;;;;;;5070165;28;20032;-79
2021/05/24 08:58:35;;;;;;;1.92;1.30;;;665.90;1280.00;;;;;;5067584;28;20046;-79
2021/05/24 09:01:02;;;;;;;4.97;2.42;;;665.60;1280.00;;;;;;5062697;28;20028;-79
2021/05/24 09:03:32;;;;;;;5.55;2.42;;;665.70;1305.60;;;;;;5071338;28;20531;-79
2021/05/24 09:06:01;;;;;;;3.03;1.52;;;665.80;1254.40;;;;;;5070491;28;20040;-79
2021/05/24 09:08:34;;;;;;;2.83;1.38;;;666.20;1254.40;;;;;;5080117;28;20020;-80
2021/05/24 09:11:00;;;;;;;2.28;1.20;;;666.40;1280.00;;;;;;5072054;28;20027;-79
2021/05/24 09:13:30;;;;;;;1.67;1.15;;;691.70;1228.80;;;;;;5075932;28;20017;-79
2021/05/24 09:15:55;;;;;;;4.28;2.15;;;691.70;1228.80;;;;;;5069479;28;20024;-79
2021/05/24 09:18:22;;;;;;;5.57;3.63;;;716.80;1254.40;;;;;;5080420;28;20549;-79
2021/05/24 09:20:52;;;;;;;4.50;2.65;;;716.90;1228.80;;;;;;5073923;28;20025;-79
2021/05/24 09:23:24;;;;;;;2.38;1.42;;;717.50;1203.20;;;;;;5072853;28;20036;-79
2021/05/24 09:26:00;;;;;;;3.67;1.88;;;717.70;1177.60;;;;;;5081093;28;20024;-80
2021/05/24 09:28:27;;;;;;;2.42;1.05;;;742.50;1177.60;;;;;;5074318;28;20035;-79
2021/05/24 09:31:01;;;;;;;4.50;2.03;;;742.40;1177.60;;;;;;5072851;28;20108;-79
2021/05/24 09:33:27;;;;;;;3.20;1.92;;;717.70;1177.60;;;;;;5074882;28;20032;-79
2021/05/24 09:35:53;;;;;;;3.90;1.35;;;717.50;1177.60;;;;;;5070215;28;20470;-79
2021/05/24 09:38:24;;;;;;;3.45;2.30;;;717.10;1203.20;;;;;;5083652;28;20036;-79
2021/05/24 09:40:51;;;;;;;3.40;1.80;;;717.20;1177.60;;;;;;5059514;28;20499;-79
2021/05/24 09:43:17;;;;;;;5.30;3.38;;;716.80;1177.60;;;;;;5086321;28;20040;-79
2021/05/24 09:45:42;;;;;;;4.25;1.67;;;716.90;1177.60;;;;;;5073089;28;20024;-79
2021/05/24 09:48:08;;;;;;;4.45;1.80;;;717.10;1177.60;;;;;;5074847;28;20035;-79
2021/05/24 09:50:36;;;;;;;2.67;1.70;;;717.00;1177.60;;;;;;5074126;28;20097;-79
2021/05/24 09:53:02;;;;;;;4.93;2.47;;;717.00;1177.60;;;;;;5073227;28;20502;-79
2021/05/24 09:55:31;;;;;;;5.07;2.25;;;691.90;1152.00;;;;;;5072823;28;20113;-79
2021/05/24 09:58:04;;;;;;;4.18;2.40;;;692.10;1126.40;;;;;;5072653;28;20055;-80
2021/05/24 10:01:02;;;;;;;2.40;1.13;;;717.00;1152.00;;;;;;5072616;28;20115;-79
2021/05/24 10:03:30;;;;;;;4.20;2.20;;;717.00;1203.20;;;;;;5073792;28;20047;-79
2021/05/24 10:05:57;;;;;;;3.30;1.77;;;742.40;1152.00;;;;;;5072739;28;20111;-80
2021/05/24 10:08:24;;;;;;;4.20;1.92;;;717.60;1152.00;;;;;;5072544;28;20775;-79
2021/05/24 10:10:50;;;;;;;5.90;2.13;;;716.90;1152.00;;;;;;5072540;28;20054;-79
2021/05/24 10:13:17;;;;;;;2.92;1.17;;;692.00;1152.00;;;;;;5073019;28;20031;-80
2021/05/24 10:15:44;;;;;;;3.47;1.90;;;692.10;1152.00;;;;;;5060184;28;20029;-79
2021/05/24 10:18:11;;;;;;;4.10;2.80;;;716.90;1177.60;;;;;;5071693;28;20025;-79
2021/05/24 10:20:37;;;;;;;5.22;2.03;;;717.70;1152.00;;;;;;5054533;28;20032;-79
2021/05/24 10:23:04;;;;;;;3.67;2.22;;;742.40;1152.00;;;;;;5071068;28;20029;-79
2021/05/24 10:25:30;;;;;;;4.10;2.55;;;742.60;1152.00;;;;;;5068107;28;20468;-80
2021/05/24 10:27:59;;;;;;;9.60;3.60;;;743.00;1126.40;;;;;;5058742;28;20029;-80
2021/05/24 10:30:25;;;;;;;3.92;2.13;;;717.60;1126.40;;;;;;5081214;28;20787;-80
2021/05/24 10:33:05;;;;;;;6.00;3.58;;;717.10;1177.60;;;;;;5075597;28;20475;-79
2021/05/24 10:35:37;;;;;;;3.25;1.95;;;717.00;1177.60;;;;;;5072372;28;20028;-79
2021/05/24 10:38:27;;;;;;;4.95;3.05;;;716.80;1203.20;;;;;;5072110;28;20032;-79
2021/05/24 10:41:02;;;;;;;5.03;3.85;;;717.00;1203.20;;;;;;5072033;28;20361;-79
2021/05/24 10:44:08;;;;;;;13.20;5.88;;;716.90;1177.60;;;;;;5091488;28;20032;-80
2021/05/24 10:46:35;;;;;;;6.63;2.85;;;716.80;1203.20;;;;;;5014845;28;20048;-79
2021/05/24 10:49:12;;;;;;;7.05;3.45;;;692.00;1203.20;;;;;;5014152;28;20029;-79
2021/05/24 10:51:47;;;;;;;5.85;3.95;;;691.90;1203.20;;;;;;5031259;28;20018;-80
2021/05/24 10:54:22;;;;;;;4.35;2.20;;;691.40;1228.80;;;;;;5030691;28;20812;-79
2021/05/24 10:56:59;;;;;;;3.90;1.75;;;691.30;1228.80;;;;;;5014482;28;20045;-79
2021/05/24 10:59:40;;;;;;;8.80;5.50;;;691.30;1203.20;;;;;;5017402;28;20042;-79
2021/05/24 11:02:23;;;;;;;3.78;1.83;;;691.30;1228.80;;;;;;5014549;28;20176;-79
2021/05/24 11:04:53;;;;;;;2.45;1.55;;;666.40;1228.80;;;;;;5013981;28;20492;-79
2021/05/24 11:07:31;;;;;;;2.85;1.40;;;666.20;1280.00;;;;;;5014454;28;20037;-79
2021/05/24 11:10:16;;;;;;;2.72;1.90;;;665.90;1280.00;;;;;;5031060;28;20030;-79
2021/05/24 11:12:44;;;;;;;2.08;1.50;;;665.90;1305.60;;;;;;5016880;28;20497;-79
2021/05/24 11:15:34;;;;;;;8.35;2.97;;;665.80;1280.00;;;;;;5014501;28;20033;-79
2021/05/24 11:18:00;;;;;;;12.70;7.07;;;665.60;1305.60;;;;;;4991351;28;20034;-77
2021/05/24 11:20:37;;;;;;;3.88;2.10;;;640.80;1280.00;;;;;;4972185;28;20438;-79
2021/05/24 11:29:16;;;;;;;4.35;2.45;;;640.80;1280.00;;;;;;4980302;28;20031;-80
2021/05/24 11:31:44;;;;;;;2.30;1.75;;;665.70;1305.60;;;;;;4985184;28;20386;-81
2021/05/24 11:34:31;;;;;;;4.47;1.90;;;665.80;1331.20;;;;;;4972004;28;20552;-79
2021/05/24 11:37:07;;;;;;;5.47;3.08;;;665.60;1331.20;;;;;;4985121;28;20510;-78
2021/05/24 11:39:40;;;;;;;8.40;2.78;;;665.60;1331.20;;;;;;4982874;28;20030;-79
2021/05/24 11:42:19;;;;;;;3.35;1.65;;;665.60;1331.20;;;;;;4986545;28;20030;-79
2021/05/24 11:44:47;;;;;;;2.53;1.52;;;665.60;1331.20;;;;;;4982318;28;20035;-79
2021/05/24 11:47:20;;;;;;;3.42;1.50;;;665.60;1305.60;;;;;;4986215;28;20026;-79
2021/05/24 11:49:51;;;;;;;3.80;2.00;;;666.00;1305.60;;;;;;4973898;28;20124;-79
2021/05/24 11:52:19;;;;;;;3.05;1.98;;;665.80;1305.60;;;;;;4984443;28;20046;-77
2021/05/24 11:54:50;;;;;;;7.18;4.25;;;666.10;1305.60;;;;;;5025641;28;20037;-78
2021/05/24 11:57:24;;;;;;;5.22;2.95;;;666.10;1331.20;;;;;;5059454;28;20395;-78
2021/05/24 11:59:51;;;;;;;4.15;2.60;;;666.50;1280.00;;;;;;5065376;28;20028;-77
2021/05/24 12:02:19;;;;;;;6.95;2.28;;;691.20;1254.40;;;;;;5067528;28;20028;-78
2021/05/24 12:04:46;;;;;;;2.60;1.77;;;666.20;1305.60;;;;;;5061547;28;20029;-78
2021/05/24 12:07:23;;;;;;;6.35;3.83;;;666.20;1305.60;;;;;;5057835;28;20078;-78
2021/05/24 12:09:51;;;;;;;3.78;1.85;;;666.20;1305.60;;;;;;5062470;28;20036;-78
2021/05/24 12:12:21;;;;;;;7.47;5.43;;;665.80;1305.60;;;;;;5065158;28;20862;-78
2021/05/24 12:14:47;;;;;;;6.10;3.40;;;665.60;1331.20;;;;;;5059173;28;20029;-78
2021/05/24 12:17:20;;;;;;;17.33;11.20;;;640.60;1331.20;;;;;;5057418;28;20025;-79
2021/05/24 12:19:48;;;;;;;9.00;4.30;;;640.50;1331.20;;;;;;5063434;28;20044;-79
2021/05/24 12:22:16;;;;;;;3.40;2.05;;;640.40;1382.40;;;;;;5070811;28;20025;-78
2021/05/24 12:24:44;;;;;;;6.35;3.30;;;640.30;1408.00;;;;;;5075403;28;20107;-78
2021/05/24 12:27:12;;;;;;;5.10;3.15;;;640.20;1408.00;;;;;;5066663;28;20070;-77